sensor_id;sensor_type;location;lat;lon;timestamp;P1;durP1;ratioP1;P2;durP2;ratioP2
31786;SDS011;18356;52.380;9.820;2022-11-06T00:00:57;8.77;;;3.70;;
31786;SDS011;18356;52.380;9.820;2022-11-06T00:03:23;8.87;;;3.43;;
31786;SDS011;18356;52.380;9.820;2022-11-06T00:05:49;13.10;;;3.60;;
31786;SDS011;18356;52.380;9.820;2022-11-06T00:08:38;8.93;;;3.83;;
31786;SDS011;18356;52.380;9.820;2022-11-06T00:11:12;8.37;;;4.10;;
31786;SDS011;18356;52.380;9.820;2022-11-06T00:13:38;10.77;;;3.77;;
31786;SDS011;18356;52.380;9.820;2022-11-06T00:16:05;10.57;;;3.20;;
31786;SDS011;18356;52.380;9.820;2022-11-06T00:18:32;7.97;;;3.50;;
31786;SDS011;18356;52.380;9.820;2022-11-06T00:20:58;10.23;;;3.50;;
31786;SDS011;18356;52.380;9.820;2022-11-06T00:23:24;12.20;;;3.70;;
31786;SDS011;18356;52.380;9.820;2022-11-06T00:25:50;10.73;;;3.37;;
31786;SDS011;18356;52.380;9.820;2022-11-06T00:28:20;10.47;;;3.70;;
31786;SDS011;18356;52.380;9.820;2022-11-06T00:30:46;7.57;;;3.43;;
31786;SDS011;18356;52.380;9.820;2022-11-06T00:33:12;7.33;;;3.47;;
31786;SDS011;18356;52.380;9.820;2022-11-06T00:35:38;8.40;;;3.40;;
31786;SDS011;18356;52.380;9.820;2022-11-06T00:38:04;6.97;;;3.23;;
31786;SDS011;18356;52.380;9.820;2022-11-06T00:40:30;11.03;;;3.33;;
31786;SDS011;18356;52.380;9.820;2022-11-06T00:42:57;9.07;;;3.73;;
31786;SDS011;18356;52.380;9.820;2022-11-06T00:45:23;7.47;;;3.30;;
31786;SDS011;18356;52.380;9.820;2022-11-06T00:47:50;11.53;;;3.83;;
31786;SDS011;18356;52.380;9.820;2022-11-06T00:50:16;8.43;;;3.30;;
31786;SDS011;18356;52.380;9.820;2022-11-06T00:52:42;7.93;;;3.10;;
31786;SDS011;18356;52.380;9.820;2022-11-06T00:55:08;9.83;;;3.70;;
31786;SDS011;18356;52.380;9.820;2022-11-06T00:57:34;9.80;;;3.37;;
31786;SDS011;18356;52.380;9.820;2022-11-06T01:00:00;8.47;;;3.60;;
31786;SDS011;18356;52.380;9.820;2022-11-06T01:02:27;10.07;;;3.03;;
31786;SDS011;18356;52.380;9.820;2022-11-06T01:04:53;7.70;;;3.43;;
31786;SDS011;18356;52.380;9.820;2022-11-06T01:07:19;7.10;;;3.30;;
31786;SDS011;18356;52.380;9.820;2022-11-06T01:09:45;9.30;;;3.40;;
31786;SDS011;18356;52.380;9.820;2022-11-06T01:12:11;7.40;;;3.27;;
31786;SDS011;18356;52.380;9.820;2022-11-06T01:14:38;9.70;;;3.60;;
31786;SDS011;18356;52.380;9.820;2022-11-06T01:17:04;10.23;;;3.63;;
31786;SDS011;18356;52.380;9.820;2022-11-06T01:19:30;9.60;;;3.70;;
31786;SDS011;18356;52.380;9.820;2022-11-06T01:21:56;10.90;;;3.67;;
31786;SDS011;18356;52.380;9.820;2022-11-06T01:24:23;7.07;;;3.67;;
31786;SDS011;18356;52.380;9.820;2022-11-06T01:26:50;10.20;;;4.00;;
31786;SDS011;18356;52.380;9.820;2022-11-06T01:29:16;8.27;;;3.97;;
31786;SDS011;18356;52.380;9.820;2022-11-06T01:31:43;6.70;;;3.30;;
31786;SDS011;18356;52.380;9.820;2022-11-06T01:34:09;9.80;;;3.70;;
31786;SDS011;18356;52.380;9.820;2022-11-06T01:36:36;9.07;;;3.50;;
31786;SDS011;18356;52.380;9.820;2022-11-06T01:39:03;6.60;;;3.57;;
31786;SDS011;18356;52.380;9.820;2022-11-06T01:41:30;6.83;;;3.50;;
31786;SDS011;18356;52.380;9.820;2022-11-06T01:43:58;8.13;;;3.60;;
31786;SDS011;18356;52.380;9.820;2022-11-06T01:46:25;9.67;;;3.63;;
31786;SDS011;18356;52.380;9.820;2022-11-06T01:48:58;9.33;;;3.60;;
31786;SDS011;18356;52.380;9.820;2022-11-06T01:51:26;8.53;;;3.43;;
31786;SDS011;18356;52.380;9.820;2022-11-06T01:53:52;8.03;;;4.00;;
31786;SDS011;18356;52.380;9.820;2022-11-06T01:56:18;10.00;;;3.30;;
31786;SDS011;18356;52.380;9.820;2022-11-06T01:58:46;7.60;;;3.97;;
31786;SDS011;18356;52.380;9.820;2022-11-06T02:01:13;11.97;;;3.67;;
31786;SDS011;18356;52.380;9.820;2022-11-06T02:03:40;7.40;;;3.70;;
31786;SDS011;18356;52.380;9.820;2022-11-06T02:06:09;12.60;;;3.83;;
31786;SDS011;18356;52.380;9.820;2022-11-06T02:08:35;8.70;;;3.80;;
31786;SDS011;18356;52.380;9.820;2022-11-06T02:11:01;5.83;;;3.67;;
31786;SDS011;18356;52.380;9.820;2022-11-06T02:16:05;8.57;;;3.80;;
31786;SDS011;18356;52.380;9.820;2022-11-06T02:28:37;7.50;;;4.00;;
31786;SDS011;18356;52.380;9.820;2022-11-06T02:31:08;9.70;;;4.63;;
31786;SDS011;18356;52.380;9.820;2022-11-06T02:33:37;12.03;;;4.87;;
31786;SDS011;18356;52.380;9.820;2022-11-06T02:36:09;11.50;;;4.87;;
31786;SDS011;18356;52.380;9.820;2022-11-06T02:38:39;10.57;;;4.40;;
31786;SDS011;18356;52.380;9.820;2022-11-06T02:41:07;9.20;;;4.80;;
31786;SDS011;18356;52.380;9.820;2022-11-06T02:43:36;10.83;;;5.10;;
31786;SDS011;18356;52.380;9.820;2022-11-06T02:46:48;9.50;;;4.80;;
31786;SDS011;18356;52.380;9.820;2022-11-06T02:48:58;10.27;;;4.90;;
31786;SDS011;18356;52.380;9.820;2022-11-06T02:51:27;11.07;;;5.10;;
31786;SDS011;18356;52.380;9.820;2022-11-06T02:53:53;14.17;;;5.57;;
31786;SDS011;18356;52.380;9.820;2022-11-06T02:56:24;9.73;;;4.83;;
31786;SDS011;18356;52.380;9.820;2022-11-06T02:58:53;11.70;;;5.00;;
31786;SDS011;18356;52.380;9.820;2022-11-06T03:03:54;11.63;;;5.17;;
31786;SDS011;18356;52.380;9.820;2022-11-06T03:06:29;9.77;;;4.97;;
31786;SDS011;18356;52.380;9.820;2022-11-06T03:09:01;10.50;;;5.03;;
31786;SDS011;18356;52.380;9.820;2022-11-06T03:11:32;9.90;;;5.27;;
31786;SDS011;18356;52.380;9.820;2022-11-06T03:14:20;10.70;;;5.30;;
31786;SDS011;18356;52.380;9.820;2022-11-06T03:22:26;10.90;;;5.10;;
31786;SDS011;18356;52.380;9.820;2022-11-06T03:27:26;10.07;;;5.10;;
31786;SDS011;18356;52.380;9.820;2022-11-06T03:29:58;12.97;;;5.80;;
31786;SDS011;18356;52.380;9.820;2022-11-06T03:32:30;16.23;;;5.80;;
31786;SDS011;18356;52.380;9.820;2022-11-06T03:40:22;12.70;;;5.53;;
31786;SDS011;18356;52.380;9.820;2022-11-06T03:42:50;13.20;;;5.73;;
31786;SDS011;18356;52.380;9.820;2022-11-06T03:45:19;12.30;;;5.50;;
31786;SDS011;18356;52.380;9.820;2022-11-06T03:47:47;12.77;;;5.50;;
31786;SDS011;18356;52.380;9.820;2022-11-06T03:50:16;13.47;;;6.00;;
31786;SDS011;18356;52.380;9.820;2022-11-06T03:53:28;18.13;;;6.20;;
31786;SDS011;18356;52.380;9.820;2022-11-06T03:55:36;15.37;;;5.87;;
31786;SDS011;18356;52.380;9.820;2022-11-06T03:58:05;10.97;;;5.50;;
31786;SDS011;18356;52.380;9.820;2022-11-06T04:00:34;14.23;;;6.43;;
31786;SDS011;18356;52.380;9.820;2022-11-06T04:03:03;13.33;;;5.77;;
31786;SDS011;18356;52.380;9.820;2022-11-06T04:05:33;13.73;;;6.30;;
31786;SDS011;18356;52.380;9.820;2022-11-06T04:08:00;13.43;;;6.87;;
31786;SDS011;18356;52.380;9.820;2022-11-06T04:10:46;14.83;;;6.37;;
31786;SDS011;18356;52.380;9.820;2022-11-06T04:13:32;15.17;;;6.03;;
31786;SDS011;18356;52.380;9.820;2022-11-06T04:16:17;14.57;;;6.43;;
31786;SDS011;18356;52.380;9.820;2022-11-06T04:18:43;17.50;;;6.57;;
31786;SDS011;18356;52.380;9.820;2022-11-06T04:21:15;10.23;;;6.13;;
31786;SDS011;18356;52.380;9.820;2022-11-06T04:23:51;15.17;;;6.43;;
31786;SDS011;18356;52.380;9.820;2022-11-06T04:26:48;10.27;;;5.77;;
31786;SDS011;18356;52.380;9.820;2022-11-06T04:29:42;18.07;;;5.90;;
31786;SDS011;18356;52.380;9.820;2022-11-06T04:32:16;10.40;;;5.60;;
31786;SDS011;18356;52.380;9.820;2022-11-06T04:40:06;11.77;;;5.90;;
31786;SDS011;18356;52.380;9.820;2022-11-06T04:45:10;11.97;;;5.07;;
31786;SDS011;18356;52.380;9.820;2022-11-06T04:47:39;11.70;;;5.47;;
31786;SDS011;18356;52.380;9.820;2022-11-06T04:50:06;12.63;;;5.90;;
31786;SDS011;18356;52.380;9.820;2022-11-06T04:52:33;12.27;;;5.50;;
31786;SDS011;18356;52.380;9.820;2022-11-06T04:55:00;9.87;;;4.73;;
31786;SDS011;18356;52.380;9.820;2022-11-06T04:57:26;14.77;;;5.20;;
31786;SDS011;18356;52.380;9.820;2022-11-06T04:59:52;14.13;;;5.30;;
31786;SDS011;18356;52.380;9.820;2022-11-06T05:02:20;13.53;;;4.57;;
31786;SDS011;18356;52.380;9.820;2022-11-06T05:04:46;10.27;;;4.80;;
31786;SDS011;18356;52.380;9.820;2022-11-06T05:07:13;13.37;;;5.17;;
31786;SDS011;18356;52.380;9.820;2022-11-06T05:09:40;10.90;;;4.70;;
31786;SDS011;18356;52.380;9.820;2022-11-06T05:12:06;9.83;;;4.40;;
31786;SDS011;18356;52.380;9.820;2022-11-06T05:14:32;12.73;;;4.40;;
31786;SDS011;18356;52.380;9.820;2022-11-06T05:16:58;15.50;;;4.97;;
31786;SDS011;18356;52.380;9.820;2022-11-06T05:19:24;10.60;;;4.80;;
31786;SDS011;18356;52.380;9.820;2022-11-06T05:21:50;9.90;;;4.43;;
31786;SDS011;18356;52.380;9.820;2022-11-06T05:24:35;12.63;;;4.70;;
31786;SDS011;18356;52.380;9.820;2022-11-06T05:27:01;12.17;;;4.70;;
31786;SDS011;18356;52.380;9.820;2022-11-06T05:29:26;15.47;;;4.80;;
31786;SDS011;18356;52.380;9.820;2022-11-06T05:31:52;14.27;;;5.13;;
31786;SDS011;18356;52.380;9.820;2022-11-06T05:34:19;17.87;;;4.90;;
31786;SDS011;18356;52.380;9.820;2022-11-06T05:36:45;14.00;;;4.93;;
31786;SDS011;18356;52.380;9.820;2022-11-06T05:39:11;10.83;;;5.33;;
31786;SDS011;18356;52.380;9.820;2022-11-06T05:41:37;15.33;;;5.23;;
31786;SDS011;18356;52.380;9.820;2022-11-06T05:44:03;15.47;;;4.90;;
31786;SDS011;18356;52.380;9.820;2022-11-06T05:46:29;12.60;;;4.90;;
31786;SDS011;18356;52.380;9.820;2022-11-06T05:48:56;12.77;;;4.73;;
31786;SDS011;18356;52.380;9.820;2022-11-06T05:51:22;12.07;;;4.63;;
31786;SDS011;18356;52.380;9.820;2022-11-06T05:53:48;16.80;;;5.07;;
31786;SDS011;18356;52.380;9.820;2022-11-06T05:56:14;11.67;;;5.03;;
31786;SDS011;18356;52.380;9.820;2022-11-06T05:58:40;10.30;;;4.67;;
31786;SDS011;18356;52.380;9.820;2022-11-06T06:01:06;9.30;;;4.50;;
31786;SDS011;18356;52.380;9.820;2022-11-06T06:03:32;13.90;;;5.50;;
31786;SDS011;18356;52.380;9.820;2022-11-06T06:05:58;12.57;;;5.00;;
31786;SDS011;18356;52.380;9.820;2022-11-06T06:08:24;12.10;;;4.67;;
31786;SDS011;18356;52.380;9.820;2022-11-06T06:10:50;10.47;;;4.60;;
31786;SDS011;18356;52.380;9.820;2022-11-06T06:13:16;13.97;;;4.90;;
31786;SDS011;18356;52.380;9.820;2022-11-06T06:15:42;14.13;;;5.00;;
31786;SDS011;18356;52.380;9.820;2022-11-06T06:18:09;10.47;;;5.17;;
31786;SDS011;18356;52.380;9.820;2022-11-06T06:20:35;9.17;;;4.63;;
31786;SDS011;18356;52.380;9.820;2022-11-06T06:23:01;14.07;;;5.00;;
31786;SDS011;18356;52.380;9.820;2022-11-06T06:25:27;10.63;;;5.30;;
31786;SDS011;18356;52.380;9.820;2022-11-06T06:27:54;12.53;;;5.50;;
31786;SDS011;18356;52.380;9.820;2022-11-06T06:30:20;19.97;;;5.87;;
31786;SDS011;18356;52.380;9.820;2022-11-06T06:32:47;13.53;;;5.30;;
31786;SDS011;18356;52.380;9.820;2022-11-06T06:35:13;12.97;;;6.03;;
31786;SDS011;18356;52.380;9.820;2022-11-06T06:37:39;15.30;;;5.30;;
31786;SDS011;18356;52.380;9.820;2022-11-06T06:40:05;13.20;;;6.10;;
31786;SDS011;18356;52.380;9.820;2022-11-06T06:42:31;14.07;;;6.23;;
31786;SDS011;18356;52.380;9.820;2022-11-06T06:44:57;15.33;;;6.37;;
31786;SDS011;18356;52.380;9.820;2022-11-06T06:47:23;13.27;;;6.93;;
31786;SDS011;18356;52.380;9.820;2022-11-06T06:49:49;14.67;;;7.00;;
31786;SDS011;18356;52.380;9.820;2022-11-06T06:52:15;12.23;;;6.77;;
31786;SDS011;18356;52.380;9.820;2022-11-06T06:54:41;16.90;;;7.20;;
31786;SDS011;18356;52.380;9.820;2022-11-06T06:57:07;17.67;;;7.33;;
31786;SDS011;18356;52.380;9.820;2022-11-06T06:59:33;15.33;;;7.40;;
31786;SDS011;18356;52.380;9.820;2022-11-06T07:01:59;15.33;;;7.07;;
31786;SDS011;18356;52.380;9.820;2022-11-06T07:04:25;16.33;;;7.47;;
31786;SDS011;18356;52.380;9.820;2022-11-06T07:06:52;16.23;;;7.00;;
31786;SDS011;18356;52.380;9.820;2022-11-06T07:09:18;17.73;;;6.77;;
31786;SDS011;18356;52.380;9.820;2022-11-06T07:11:44;13.47;;;6.60;;
31786;SDS011;18356;52.380;9.820;2022-11-06T07:14:10;19.53;;;7.47;;
31786;SDS011;18356;52.380;9.820;2022-11-06T07:16:36;16.17;;;7.40;;
31786;SDS011;18356;52.380;9.820;2022-11-06T07:19:02;19.33;;;7.60;;
31786;SDS011;18356;52.380;9.820;2022-11-06T07:21:28;17.03;;;7.57;;
31786;SDS011;18356;52.380;9.820;2022-11-06T07:23:54;17.40;;;8.47;;
31786;SDS011;18356;52.380;9.820;2022-11-06T07:26:20;17.97;;;8.37;;
31786;SDS011;18356;52.380;9.820;2022-11-06T07:28:46;19.13;;;8.97;;
31786;SDS011;18356;52.380;9.820;2022-11-06T07:31:12;15.80;;;8.77;;
31786;SDS011;18356;52.380;9.820;2022-11-06T07:33:38;22.23;;;9.37;;
31786;SDS011;18356;52.380;9.820;2022-11-06T07:36:05;16.90;;;8.53;;
31786;SDS011;18356;52.380;9.820;2022-11-06T07:38:32;14.23;;;7.63;;
31786;SDS011;18356;52.380;9.820;2022-11-06T07:41:03;14.73;;;8.00;;
31786;SDS011;18356;52.380;9.820;2022-11-06T07:43:29;16.53;;;7.97;;
31786;SDS011;18356;52.380;9.820;2022-11-06T07:45:59;13.87;;;7.80;;
31786;SDS011;18356;52.380;9.820;2022-11-06T07:48:25;15.37;;;7.60;;
31786;SDS011;18356;52.380;9.820;2022-11-06T07:50:52;14.87;;;7.30;;
31786;SDS011;18356;52.380;9.820;2022-11-06T07:53:18;21.63;;;7.97;;
31786;SDS011;18356;52.380;9.820;2022-11-06T07:55:47;14.93;;;8.43;;
31786;SDS011;18356;52.380;9.820;2022-11-06T07:58:13;19.53;;;8.90;;
31786;SDS011;18356;52.380;9.820;2022-11-06T08:00:44;15.30;;;8.70;;
31786;SDS011;18356;52.380;9.820;2022-11-06T08:03:10;19.63;;;9.07;;
31786;SDS011;18356;52.380;9.820;2022-11-06T08:05:36;16.77;;;8.70;;
31786;SDS011;18356;52.380;9.820;2022-11-06T08:08:02;17.13;;;8.83;;
31786;SDS011;18356;52.380;9.820;2022-11-06T08:10:28;16.07;;;9.00;;
31786;SDS011;18356;52.380;9.820;2022-11-06T08:12:54;15.57;;;8.83;;
31786;SDS011;18356;52.380;9.820;2022-11-06T08:15:20;17.47;;;8.33;;
31786;SDS011;18356;52.380;9.820;2022-11-06T08:17:46;18.13;;;8.73;;
31786;SDS011;18356;52.380;9.820;2022-11-06T08:20:12;17.83;;;9.03;;
31786;SDS011;18356;52.380;9.820;2022-11-06T08:22:38;15.77;;;7.90;;
31786;SDS011;18356;52.380;9.820;2022-11-06T08:25:04;12.70;;;7.37;;
31786;SDS011;18356;52.380;9.820;2022-11-06T08:27:30;15.80;;;7.80;;
31786;SDS011;18356;52.380;9.820;2022-11-06T08:29:57;11.73;;;7.70;;
31786;SDS011;18356;52.380;9.820;2022-11-06T08:32:23;15.77;;;8.00;;
31786;SDS011;18356;52.380;9.820;2022-11-06T08:34:49;13.77;;;7.00;;
31786;SDS011;18356;52.380;9.820;2022-11-06T08:37:15;13.90;;;7.77;;
31786;SDS011;18356;52.380;9.820;2022-11-06T08:39:41;13.63;;;7.43;;
31786;SDS011;18356;52.380;9.820;2022-11-06T08:42:08;13.03;;;6.97;;
31786;SDS011;18356;52.380;9.820;2022-11-06T08:44:34;15.47;;;6.83;;
31786;SDS011;18356;52.380;9.820;2022-11-06T08:47:00;12.73;;;7.10;;
31786;SDS011;18356;52.380;9.820;2022-11-06T08:49:26;11.40;;;6.63;;
31786;SDS011;18356;52.380;9.820;2022-11-06T08:51:52;12.83;;;6.50;;
31786;SDS011;18356;52.380;9.820;2022-11-06T08:54:18;14.43;;;6.60;;
31786;SDS011;18356;52.380;9.820;2022-11-06T08:56:44;14.90;;;6.37;;
31786;SDS011;18356;52.380;9.820;2022-11-06T08:59:10;16.40;;;6.73;;
31786;SDS011;18356;52.380;9.820;2022-11-06T09:01:36;12.90;;;6.30;;
31786;SDS011;18356;52.380;9.820;2022-11-06T09:04:02;13.73;;;6.33;;
31786;SDS011;18356;52.380;9.820;2022-11-06T09:06:29;13.73;;;6.57;;
31786;SDS011;18356;52.380;9.820;2022-11-06T09:08:55;11.23;;;6.63;;
31786;SDS011;18356;52.380;9.820;2022-11-06T09:11:22;16.33;;;6.67;;
31786;SDS011;18356;52.380;9.820;2022-11-06T09:13:48;12.67;;;6.27;;
31786;SDS011;18356;52.380;9.820;2022-11-06T09:16:14;12.50;;;6.20;;
31786;SDS011;18356;52.380;9.820;2022-11-06T09:18:40;9.97;;;5.90;;
31786;SDS011;18356;52.380;9.820;2022-11-06T09:21:05;11.53;;;5.87;;
31786;SDS011;18356;52.380;9.820;2022-11-06T09:23:31;14.43;;;6.50;;
31786;SDS011;18356;52.380;9.820;2022-11-06T09:25:57;12.43;;;5.40;;
31786;SDS011;18356;52.380;9.820;2022-11-06T09:28:23;11.43;;;5.57;;
31786;SDS011;18356;52.380;9.820;2022-11-06T09:30:50;10.70;;;5.33;;
31786;SDS011;18356;52.380;9.820;2022-11-06T09:33:16;13.67;;;5.87;;
31786;SDS011;18356;52.380;9.820;2022-11-06T09:35:42;8.20;;;4.90;;
31786;SDS011;18356;52.380;9.820;2022-11-06T09:38:12;11.30;;;5.03;;
31786;SDS011;18356;52.380;9.820;2022-11-06T09:46:23;8.30;;;4.60;;
31786;SDS011;18356;52.380;9.820;2022-11-06T09:51:40;12.23;;;5.03;;
31786;SDS011;18356;52.380;9.820;2022-11-06T09:56:37;12.97;;;4.90;;
31786;SDS011;18356;52.380;9.820;2022-11-06T09:59:05;11.80;;;4.57;;
31786;SDS011;18356;52.380;9.820;2022-11-06T10:01:45;11.40;;;4.80;;
31786;SDS011;18356;52.380;9.820;2022-11-06T10:04:57;12.13;;;4.63;;
31786;SDS011;18356;52.380;9.820;2022-11-06T10:06:58;11.07;;;4.90;;
31786;SDS011;18356;52.380;9.820;2022-11-06T10:09:24;8.33;;;4.27;;
31786;SDS011;18356;52.380;9.820;2022-11-06T10:16:51;7.87;;;3.90;;
31786;SDS011;18356;52.380;9.820;2022-11-06T10:26:49;10.57;;;5.20;;
31786;SDS011;18356;52.380;9.820;2022-11-06T10:29:37;8.90;;;4.90;;
31786;SDS011;18356;52.380;9.820;2022-11-06T10:32:16;8.77;;;4.40;;
31786;SDS011;18356;52.380;9.820;2022-11-06T10:34:48;11.57;;;5.23;;
31786;SDS011;18356;52.380;9.820;2022-11-06T10:39:40;12.20;;;5.50;;
31786;SDS011;18356;52.380;9.820;2022-11-06T10:42:17;9.57;;;4.63;;
31786;SDS011;18356;52.380;9.820;2022-11-06T10:44:48;12.43;;;4.50;;
31786;SDS011;18356;52.380;9.820;2022-11-06T10:47:49;7.77;;;4.10;;
31786;SDS011;18356;52.380;9.820;2022-11-06T10:50:10;11.77;;;4.40;;
31786;SDS011;18356;52.380;9.820;2022-11-06T11:00:10;8.10;;;3.93;;
31786;SDS011;18356;52.380;9.820;2022-11-06T11:02:38;6.97;;;3.73;;
31786;SDS011;18356;52.380;9.820;2022-11-06T11:05:15;9.97;;;3.67;;
31786;SDS011;18356;52.380;9.820;2022-11-06T11:07:41;12.13;;;4.00;;
31786;SDS011;18356;52.380;9.820;2022-11-06T11:12:49;10.13;;;4.00;;
31786;SDS011;18356;52.380;9.820;2022-11-06T11:15:17;12.60;;;3.83;;
31786;SDS011;18356;52.380;9.820;2022-11-06T11:18:05;7.47;;;3.10;;
31786;SDS011;18356;52.380;9.820;2022-11-06T11:20:31;6.97;;;2.97;;
31786;SDS011;18356;52.380;9.820;2022-11-06T11:23:04;9.77;;;3.67;;
31786;SDS011;18356;52.380;9.820;2022-11-06T11:25:31;7.87;;;2.90;;
31786;SDS011;18356;52.380;9.820;2022-11-06T11:27:57;5.90;;;3.07;;
31786;SDS011;18356;52.380;9.820;2022-11-06T11:30:24;9.23;;;3.20;;
31786;SDS011;18356;52.380;9.820;2022-11-06T11:32:51;7.00;;;3.23;;
31786;SDS011;18356;52.380;9.820;2022-11-06T11:35:19;5.77;;;3.00;;
31786;SDS011;18356;52.380;9.820;2022-11-06T11:37:45;8.87;;;3.50;;
31786;SDS011;18356;52.380;9.820;2022-11-06T11:42:53;8.57;;;3.70;;
31786;SDS011;18356;52.380;9.820;2022-11-06T11:45:19;7.77;;;3.03;;
31786;SDS011;18356;52.380;9.820;2022-11-06T11:47:46;6.83;;;3.70;;
31786;SDS011;18356;52.380;9.820;2022-11-06T11:52:45;9.77;;;3.27;;
31786;SDS011;18356;52.380;9.820;2022-11-06T11:55:16;8.60;;;3.40;;
31786;SDS011;18356;52.380;9.820;2022-11-06T11:57:43;9.37;;;3.83;;
31786;SDS011;18356;52.380;9.820;2022-11-06T12:00:13;10.83;;;3.03;;
31786;SDS011;18356;52.380;9.820;2022-11-06T12:02:41;7.27;;;3.03;;
31786;SDS011;18356;52.380;9.820;2022-11-06T12:05:12;11.13;;;3.17;;
31786;SDS011;18356;52.380;9.820;2022-11-06T12:07:48;7.60;;;3.10;;
31786;SDS011;18356;52.380;9.820;2022-11-06T12:12:54;6.03;;;2.88;;
31786;SDS011;18356;52.380;9.820;2022-11-06T12:15:43;7.82;;;2.88;;
31786;SDS011;18356;52.380;9.820;2022-11-06T12:18:12;9.25;;;3.08;;
31786;SDS011;18356;52.380;9.820;2022-11-06T12:24:08;9.97;;;3.33;;
31786;SDS011;18356;52.380;9.820;2022-11-06T12:26:17;8.40;;;3.20;;
31786;SDS011;18356;52.380;9.820;2022-11-06T12:28:46;6.83;;;2.70;;
31786;SDS011;18356;52.380;9.820;2022-11-06T12:39:39;6.10;;;2.60;;
31786;SDS011;18356;52.380;9.820;2022-11-06T12:42:10;6.80;;;2.73;;
31786;SDS011;18356;52.380;9.820;2022-11-06T12:44:37;7.10;;;2.57;;
31786;SDS011;18356;52.380;9.820;2022-11-06T13:10:45;10.60;;;3.03;;
31786;SDS011;18356;52.380;9.820;2022-11-06T13:15:45;8.83;;;2.30;;
31786;SDS011;18356;52.380;9.820;2022-11-06T13:18:24;10.87;;;2.87;;
31786;SDS011;18356;52.380;9.820;2022-11-06T13:23:47;9.48;;;2.60;;
31786;SDS011;18356;52.380;9.820;2022-11-06T13:26:48;8.68;;;2.90;;
31786;SDS011;18356;52.380;9.820;2022-11-06T13:29:08;8.55;;;2.97;;
31786;SDS011;18356;52.380;9.820;2022-11-06T13:31:36;8.40;;;2.72;;
31786;SDS011;18356;52.380;9.820;2022-11-06T13:34:03;6.57;;;2.40;;
31786;SDS011;18356;52.380;9.820;2022-11-06T13:36:31;6.80;;;2.53;;
31786;SDS011;18356;52.380;9.820;2022-11-06T13:39:06;8.55;;;2.47;;
31786;SDS011;18356;52.380;9.820;2022-11-06T13:41:35;7.45;;;2.10;;
31786;SDS011;18356;52.380;9.820;2022-11-06T13:44:03;7.57;;;2.53;;
31786;SDS011;18356;52.380;9.820;2022-11-06T13:49:02;8.80;;;2.70;;
31786;SDS011;18356;52.380;9.820;2022-11-06T13:51:50;10.50;;;2.57;;
31786;SDS011;18356;52.380;9.820;2022-11-06T14:07:37;7.40;;;1.90;;
31786;SDS011;18356;52.380;9.820;2022-11-06T14:10:05;7.28;;;1.98;;
31786;SDS011;18356;52.380;9.820;2022-11-06T14:12:44;7.60;;;2.00;;
31786;SDS011;18356;52.380;9.820;2022-11-06T14:15:12;7.40;;;2.20;;
31786;SDS011;18356;52.380;9.820;2022-11-06T14:17:39;6.50;;;2.10;;
31786;SDS011;18356;52.380;9.820;2022-11-06T14:20:10;5.33;;;1.80;;
31786;SDS011;18356;52.380;9.820;2022-11-06T14:22:50;6.17;;;1.90;;
31786;SDS011;18356;52.380;9.820;2022-11-06T14:32:56;10.30;;;2.30;;
31786;SDS011;18356;52.380;9.820;2022-11-06T14:40:42;5.83;;;1.47;;
31786;SDS011;18356;52.380;9.820;2022-11-06T14:43:18;5.07;;;1.73;;
31786;SDS011;18356;52.380;9.820;2022-11-06T14:45:50;6.30;;;1.90;;
31786;SDS011;18356;52.380;9.820;2022-11-06T14:48:27;8.10;;;1.67;;
31786;SDS011;18356;52.380;9.820;2022-11-06T14:50:53;8.20;;;2.03;;
31786;SDS011;18356;52.380;9.820;2022-11-06T14:54:21;8.03;;;2.50;;
31786;SDS011;18356;52.380;9.820;2022-11-06T14:56:19;6.63;;;2.10;;
31786;SDS011;18356;52.380;9.820;2022-11-06T14:58:47;5.17;;;1.90;;
31786;SDS011;18356;52.380;9.820;2022-11-06T15:01:15;6.03;;;2.07;;
31786;SDS011;18356;52.380;9.820;2022-11-06T15:16:26;3.87;;;1.80;;
31786;SDS011;18356;52.380;9.820;2022-11-06T15:18:53;6.67;;;1.93;;
31786;SDS011;18356;52.380;9.820;2022-11-06T15:21:28;7.37;;;2.30;;
31786;SDS011;18356;52.380;9.820;2022-11-06T15:26:37;9.63;;;2.70;;
31786;SDS011;18356;52.380;9.820;2022-11-06T15:31:41;9.37;;;2.73;;
31786;SDS011;18356;52.380;9.820;2022-11-06T15:34:14;8.40;;;3.80;;
31786;SDS011;18356;52.380;9.820;2022-11-06T15:36:41;8.67;;;4.33;;
31786;SDS011;18356;52.380;9.820;2022-11-06T15:39:21;13.00;;;3.30;;
31786;SDS011;18356;52.380;9.820;2022-11-06T15:41:48;12.27;;;3.20;;
31786;SDS011;18356;52.380;9.820;2022-11-06T15:44:17;10.10;;;2.93;;
31786;SDS011;18356;52.380;9.820;2022-11-06T15:46:53;14.73;;;3.00;;
31786;SDS011;18356;52.380;9.820;2022-11-06T15:49:20;10.90;;;2.73;;
31786;SDS011;18356;52.380;9.820;2022-11-06T15:56:57;6.83;;;2.67;;
31786;SDS011;18356;52.380;9.820;2022-11-06T15:59:23;9.20;;;3.37;;
31786;SDS011;18356;52.380;9.820;2022-11-06T16:01:49;8.37;;;2.90;;
31786;SDS011;18356;52.380;9.820;2022-11-06T16:04:17;6.43;;;2.63;;
31786;SDS011;18356;52.380;9.820;2022-11-06T16:06:44;10.07;;;2.47;;
31786;SDS011;18356;52.380;9.820;2022-11-06T16:09:14;6.70;;;2.63;;
31786;SDS011;18356;52.380;9.820;2022-11-06T16:11:41;12.27;;;2.43;;
31786;SDS011;18356;52.380;9.820;2022-11-06T16:14:09;4.73;;;1.87;;
31786;SDS011;18356;52.380;9.820;2022-11-06T16:16:37;7.33;;;2.20;;
31786;SDS011;18356;52.380;9.820;2022-11-06T16:19:04;8.03;;;2.27;;
31786;SDS011;18356;52.380;9.820;2022-11-06T16:21:32;6.80;;;2.10;;
31786;SDS011;18356;52.380;9.820;2022-11-06T16:24:00;6.83;;;2.10;;
31786;SDS011;18356;52.380;9.820;2022-11-06T16:28:59;5.43;;;1.87;;
31786;SDS011;18356;52.380;9.820;2022-11-06T16:31:27;6.30;;;2.13;;
31786;SDS011;18356;52.380;9.820;2022-11-06T16:36:22;8.07;;;2.00;;
31786;SDS011;18356;52.380;9.820;2022-11-06T16:38:48;4.40;;;2.00;;
31786;SDS011;18356;52.380;9.820;2022-11-06T16:41:16;6.23;;;2.33;;
31786;SDS011;18356;52.380;9.820;2022-11-06T16:44:19;4.03;;;2.20;;
31786;SDS011;18356;52.380;9.820;2022-11-06T16:47:31;7.73;;;2.60;;
31786;SDS011;18356;52.380;9.820;2022-11-06T16:49:39;5.83;;;2.30;;
31786;SDS011;18356;52.380;9.820;2022-11-06T16:57:14;5.67;;;2.63;;
31786;SDS011;18356;52.380;9.820;2022-11-06T16:59:41;7.77;;;2.67;;
31786;SDS011;18356;52.380;9.820;2022-11-06T17:02:17;7.80;;;2.67;;
31786;SDS011;18356;52.380;9.820;2022-11-06T17:04:43;6.50;;;2.63;;
31786;SDS011;18356;52.380;9.820;2022-11-06T17:07:15;7.23;;;2.83;;
31786;SDS011;18356;52.380;9.820;2022-11-06T17:09:42;9.87;;;3.53;;
31786;SDS011;18356;52.380;9.820;2022-11-06T17:12:09;8.50;;;3.47;;
31786;SDS011;18356;52.380;9.820;2022-11-06T17:14:35;8.50;;;2.90;;
31786;SDS011;18356;52.380;9.820;2022-11-06T17:17:01;8.43;;;2.77;;
31786;SDS011;18356;52.380;9.820;2022-11-06T17:19:28;5.47;;;3.30;;
31786;SDS011;18356;52.380;9.820;2022-11-06T17:21:55;6.47;;;3.07;;
31786;SDS011;18356;52.380;9.820;2022-11-06T17:24:21;6.13;;;2.90;;
31786;SDS011;18356;52.380;9.820;2022-11-06T17:26:52;10.67;;;3.87;;
31786;SDS011;18356;52.380;9.820;2022-11-06T17:29:18;8.17;;;3.27;;
31786;SDS011;18356;52.380;9.820;2022-11-06T17:31:44;5.87;;;3.17;;
31786;SDS011;18356;52.380;9.820;2022-11-06T17:34:10;5.83;;;3.10;;
31786;SDS011;18356;52.380;9.820;2022-11-06T17:36:36;6.57;;;2.90;;
31786;SDS011;18356;52.380;9.820;2022-11-06T17:39:06;6.23;;;3.00;;
31786;SDS011;18356;52.380;9.820;2022-11-06T17:41:32;7.00;;;2.87;;
31786;SDS011;18356;52.380;9.820;2022-11-06T17:46:24;6.97;;;3.53;;
31786;SDS011;18356;52.380;9.820;2022-11-06T17:48:51;7.80;;;3.40;;
31786;SDS011;18356;52.380;9.820;2022-11-06T17:51:17;5.50;;;3.07;;
31786;SDS011;18356;52.380;9.820;2022-11-06T17:54:02;7.57;;;3.10;;
31786;SDS011;18356;52.380;9.820;2022-11-06T17:56:28;5.90;;;3.23;;